createdAt,value
2022-10-05T00:02:25.828Z,11.40
2022-10-05T00:04:56.140Z,11.60
2022-10-05T00:07:24.537Z,11.60
2022-10-05T00:09:59.626Z,11.70
2022-10-05T00:12:29.863Z,11.70
2022-10-05T00:15:00.927Z,11.70
2022-10-05T00:17:30.195Z,11.80
2022-10-05T00:19:57.624Z,11.90
2022-10-05T00:22:31.810Z,11.90
2022-10-05T00:25:01.699Z,12.00
2022-10-05T00:27:36.514Z,12.00
2022-10-05T00:30:25.450Z,12.00
2022-10-05T00:32:57.298Z,12.10
2022-10-05T00:35:29.329Z,12.10
2022-10-05T00:37:56.997Z,12.10
2022-10-05T00:40:30.503Z,12.10
2022-10-05T00:43:26.956Z,12.20
2022-10-05T00:46:02.749Z,12.20
2022-10-05T00:48:46.118Z,12.20
2022-10-05T00:51:27.167Z,12.20
2022-10-05T00:54:01.850Z,12.30
2022-10-05T00:57:09.884Z,12.30
2022-10-05T00:59:55.763Z,12.30
2022-10-05T01:02:41.925Z,12.20
2022-10-05T01:05:39.839Z,12.20
2022-10-05T01:08:07.100Z,12.20
2022-10-05T01:10:50.055Z,12.20
2022-10-05T01:13:44.914Z,12.20
2022-10-05T01:16:19.497Z,12.20
2022-10-05T01:19:04.053Z,12.20
2022-10-05T01:21:45.215Z,12.20
2022-10-05T01:24:44.082Z,12.30
2022-10-05T01:27:21.536Z,12.30
2022-10-05T01:29:57.149Z,12.30
2022-10-05T01:32:42.426Z,12.30
2022-10-05T01:35:24.293Z,12.30
2022-10-05T01:38:33.363Z,12.30
2022-10-05T01:41:19.654Z,12.40
2022-10-05T01:44:07.994Z,12.40
2022-10-05T01:47:09.289Z,12.40
2022-10-05T01:49:38.770Z,12.40
2022-10-05T01:52:44.989Z,12.40
2022-10-05T01:55:22.521Z,12.40
2022-10-05T01:58:32.377Z,12.40
2022-10-05T02:01:06.954Z,12.40
2022-10-05T02:03:51.328Z,12.40
2022-10-05T02:06:25.580Z,12.40
2022-10-05T02:09:21.774Z,12.40
2022-10-05T02:11:56.862Z,12.40
2022-10-05T02:14:31.011Z,12.40
2022-10-05T02:17:05.509Z,12.40
2022-10-05T02:19:40.704Z,12.40
2022-10-05T02:22:16.057Z,12.30
2022-10-05T02:24:50.786Z,12.30
2022-10-05T02:27:27.037Z,12.30
2022-10-05T02:30:01.331Z,12.30
2022-10-05T02:32:41.062Z,12.30
2022-10-05T02:35:18.176Z,12.30
2022-10-05T02:37:57.337Z,12.40
2022-10-05T02:40:51.664Z,12.30
2022-10-05T02:43:57.574Z,12.30
2022-10-05T02:47:14.692Z,12.30
2022-10-05T02:49:55.571Z,12.40
2022-10-05T02:52:47.759Z,12.40
2022-10-05T02:55:26.721Z,12.40
2022-10-05T02:58:04.547Z,12.40
2022-10-05T03:00:39.037Z,12.40
2022-10-05T03:03:29.707Z,12.40
2022-10-05T03:06:03.623Z,12.40
2022-10-05T03:08:47.008Z,12.40
2022-10-05T03:11:50.626Z,12.40
2022-10-05T03:14:22.122Z,12.40
2022-10-05T03:17:04.506Z,12.50
2022-10-05T03:19:44.833Z,12.40
2022-10-05T03:22:42.845Z,12.50
2022-10-05T03:25:49.503Z,12.50
2022-10-05T03:29:05.033Z,12.50
2022-10-05T03:32:11.815Z,12.50
2022-10-05T03:34:45.809Z,12.60
2022-10-05T03:37:34.713Z,12.60
2022-10-05T03:40:29.335Z,12.60
2022-10-05T03:43:05.240Z,12.60
2022-10-05T03:45:57.788Z,12.50
2022-10-05T03:48:48.089Z,12.40
2022-10-05T03:51:41.010Z,12.40
2022-10-05T03:54:26.441Z,12.40
2022-10-05T03:57:12.983Z,12.40
2022-10-05T03:59:49.323Z,12.50
2022-10-05T04:02:30.974Z,12.50
2022-10-05T04:05:12.372Z,12.50
2022-10-05T04:07:49.659Z,12.50
2022-10-05T04:10:30.433Z,12.60
2022-10-05T04:13:11.659Z,12.60
2022-10-05T04:15:58.123Z,12.60
2022-10-05T04:18:31.420Z,12.60
2022-10-05T04:21:13.479Z,12.60
2022-10-05T04:24:17.969Z,12.60
2022-10-05T04:26:54.586Z,12.60
2022-10-05T04:29:45.150Z,12.60
2022-10-05T04:32:16.016Z,12.50
2022-10-05T04:35:21.155Z,12.50
2022-10-05T04:38:07.739Z,12.50
2022-10-05T04:40:43.526Z,12.50
2022-10-05T04:43:36.543Z,12.50
2022-10-05T04:46:30.002Z,12.50
2022-10-05T04:49:32.885Z,12.50
2022-10-05T04:52:25.306Z,12.50
2022-10-05T04:55:25.153Z,12.50
2022-10-05T04:58:30.781Z,12.50
2022-10-05T05:01:36.078Z,12.50
2022-10-05T05:04:12.242Z,12.50
2022-10-05T05:07:07.795Z,12.50
2022-10-05T05:09:56.827Z,12.50
2022-10-05T05:12:44.027Z,12.60
2022-10-05T05:15:35.267Z,12.60
2022-10-05T05:18:15.508Z,12.70
2022-10-05T05:21:16.309Z,12.70
2022-10-05T05:23:54.625Z,12.60
2022-10-05T05:26:59.743Z,12.60
2022-10-05T05:30:08.363Z,12.60
2022-10-05T05:32:48.296Z,12.60
2022-10-05T05:35:39.567Z,12.60
2022-10-05T05:38:36.719Z,12.60
2022-10-05T05:41:12.985Z,12.50
2022-10-05T05:44:18.997Z,12.50
2022-10-05T05:47:08.681Z,12.50
2022-10-05T05:50:07.305Z,12.50
2022-10-05T05:52:43.358Z,12.50
2022-10-05T05:55:20.000Z,12.50
2022-10-05T05:57:55.552Z,12.50
2022-10-05T06:00:34.358Z,12.50
2022-10-05T06:03:18.988Z,12.50
2022-10-05T06:05:55.184Z,12.50
2022-10-05T06:08:45.169Z,12.50
2022-10-05T06:11:45.540Z,12.60
2022-10-05T06:14:43.291Z,12.60
2022-10-05T06:17:32.976Z,12.60
2022-10-05T06:20:05.458Z,12.70
2022-10-05T06:22:40.883Z,12.70
2022-10-05T06:25:12.848Z,12.80
2022-10-05T06:28:01.612Z,12.80
2022-10-05T06:30:52.777Z,12.90
2022-10-05T06:33:41.901Z,13.00
2022-10-05T06:36:22.371Z,13.00
2022-10-05T06:39:12.386Z,13.20
2022-10-05T06:42:01.737Z,13.30
2022-10-05T06:45:02.293Z,13.40
2022-10-05T06:48:18.917Z,13.50
2022-10-05T06:51:19.782Z,13.60
2022-10-05T06:54:29.119Z,13.60
2022-10-05T06:57:26.801Z,13.70
2022-10-05T07:00:15.298Z,13.70
2022-10-05T07:02:55.762Z,13.80
2022-10-05T07:05:31.748Z,13.80
2022-10-05T07:08:05.430Z,13.90
2022-10-05T07:10:37.259Z,13.90
2022-10-05T07:13:37.181Z,13.90
2022-10-05T07:16:18.647Z,14.00
2022-10-05T07:19:07.201Z,14.10
2022-10-05T07:21:45.884Z,14.20
2022-10-05T07:24:49.956Z,14.40
2022-10-05T07:27:24.637Z,14.40
2022-10-05T07:30:19.658Z,14.50
2022-10-05T07:33:09.195Z,14.60
2022-10-05T07:36:12.487Z,14.60
2022-10-05T07:38:45.592Z,14.60
2022-10-05T07:41:36.035Z,14.60
2022-10-05T07:44:36.958Z,14.60
2022-10-05T07:47:15.272Z,14.60
2022-10-05T07:50:02.458Z,14.70
2022-10-05T07:52:42.253Z,14.70
2022-10-05T07:55:29.914Z,14.70
2022-10-05T07:58:23.503Z,14.90
2022-10-05T08:01:08.042Z,14.90
2022-10-05T08:03:58.692Z,14.80
2022-10-05T08:06:26.981Z,14.80
2022-10-05T08:09:15.482Z,15.10
2022-10-05T08:12:33.866Z,15.70
2022-10-05T08:15:05.215Z,15.90
2022-10-05T08:17:40.544Z,15.90
2022-10-05T08:20:35.386Z,16.00
2022-10-05T08:23:17.409Z,16.00
2022-10-05T08:25:50.741Z,16.10
2022-10-05T08:28:29.992Z,16.20
2022-10-05T08:31:01.874Z,16.40
2022-10-05T08:33:38.710Z,16.50
2022-10-05T08:36:12.341Z,16.50
2022-10-05T08:38:41.143Z,16.70
2022-10-05T08:41:39.921Z,16.70
2022-10-05T08:44:49.369Z,16.60
2022-10-05T08:47:43.235Z,16.70
2022-10-05T08:50:34.083Z,16.40
2022-10-05T08:53:13.796Z,16.70
2022-10-05T08:56:27.769Z,17.20
2022-10-05T08:59:05.840Z,17.20
2022-10-05T09:01:48.008Z,17.20
2022-10-05T09:04:42.502Z,17.20
2022-10-05T09:07:16.411Z,17.40
2022-10-05T09:10:01.733Z,17.50
2022-10-05T09:13:04.007Z,17.60
2022-10-05T09:15:56.452Z,17.60
2022-10-05T09:18:49.968Z,17.80
2022-10-05T09:21:21.609Z,17.60
2022-10-05T09:24:04.825Z,17.60
2022-10-05T09:26:58.968Z,17.60
2022-10-05T09:29:53.822Z,17.70
2022-10-05T09:32:39.912Z,17.80
2022-10-05T09:35:37.462Z,17.80
2022-10-05T09:38:23.306Z,17.80
2022-10-05T09:41:06.953Z,17.80
2022-10-05T09:44:02.148Z,17.80
2022-10-05T09:46:45.725Z,17.60
2022-10-05T09:49:50.791Z,17.30
2022-10-05T09:52:36.922Z,17.00
2022-10-05T09:55:26.121Z,17.00
2022-10-05T09:58:23.096Z,17.00
2022-10-05T10:01:09.047Z,17.10
2022-10-05T10:04:14.291Z,17.20
2022-10-05T10:06:53.283Z,17.40
2022-10-05T10:09:45.186Z,17.30
2022-10-05T10:12:42.053Z,17.20
2022-10-05T10:15:31.213Z,17.20
2022-10-05T10:18:27.805Z,17.00
2022-10-05T10:21:33.099Z,17.00
2022-10-05T10:24:15.620Z,16.90
2022-10-05T10:27:07.557Z,16.90
2022-10-05T10:29:49.608Z,17.00
2022-10-05T10:32:36.601Z,16.90
2022-10-05T10:35:32.812Z,17.00
2022-10-05T10:38:20.431Z,17.00
2022-10-05T10:41:11.823Z,17.00
2022-10-05T10:44:06.604Z,17.00
2022-10-05T10:47:04.806Z,16.80
2022-10-05T10:50:00.935Z,16.80
2022-10-05T10:52:47.434Z,16.80
2022-10-05T10:55:20.706Z,16.80
2022-10-05T10:58:37.401Z,16.80
2022-10-05T11:01:23.338Z,16.80
2022-10-05T11:04:14.102Z,16.80
2022-10-05T11:07:12.666Z,16.80
2022-10-05T11:09:53.642Z,16.80
2022-10-05T11:13:03.312Z,17.00
2022-10-05T11:15:58.507Z,17.00
2022-10-05T11:18:41.294Z,17.20
2022-10-05T11:21:36.538Z,17.40
2022-10-05T11:24:39.294Z,17.20
2022-10-05T11:27:40.651Z,17.20
2022-10-05T11:30:36.865Z,17.40
2022-10-05T11:33:42.866Z,17.40
2022-10-05T11:36:32.151Z,17.50
2022-10-05T11:39:21.026Z,17.50
2022-10-05T11:42:16.100Z,17.40
2022-10-05T11:44:52.309Z,17.50
2022-10-05T11:47:27.866Z,17.50
2022-10-05T11:50:17.794Z,17.80
2022-10-05T11:52:58.774Z,18.20
2022-10-05T11:55:40.935Z,18.60
2022-10-05T11:58:24.072Z,18.80
2022-10-05T12:01:22.525Z,18.70
2022-10-05T12:04:14.664Z,18.80
2022-10-05T12:07:32.496Z,19.00
2022-10-05T12:10:14.383Z,19.10
2022-10-05T12:13:13.421Z,19.10
2022-10-05T12:16:05.708Z,19.00
2022-10-05T12:18:34.296Z,18.90
2022-10-05T12:21:22.877Z,19.10
2022-10-05T12:24:07.235Z,19.20
2022-10-05T12:27:03.376Z,19.10
2022-10-05T12:29:44.043Z,19.10
2022-10-05T12:32:35.919Z,19.20
2022-10-05T12:35:36.620Z,19.10
2022-10-05T12:38:25.549Z,19.20
2022-10-05T12:41:36.850Z,19.30
2022-10-05T12:44:32.086Z,19.30
2022-10-05T12:47:09.375Z,19.30
2022-10-05T12:49:44.867Z,19.60
2022-10-05T12:52:44.727Z,19.60
2022-10-05T12:55:41.867Z,19.70
2022-10-05T12:58:44.535Z,19.90
2022-10-05T13:01:32.420Z,20.00
2022-10-05T13:04:18.412Z,20.00
2022-10-05T13:07:14.943Z,20.10
2022-10-05T13:10:00.465Z,20.20
2022-10-05T13:12:53.547Z,20.20
2022-10-05T13:15:31.597Z,20.30
2022-10-05T13:18:26.296Z,20.10
2022-10-05T13:21:03.962Z,20.40
2022-10-05T13:23:56.484Z,20.30
2022-10-05T13:26:39.524Z,20.30
2022-10-05T13:29:25.808Z,20.50
2022-10-05T13:32:19.246Z,20.40
2022-10-05T13:35:11.555Z,20.50
2022-10-05T13:38:18.048Z,21.20
2022-10-05T13:40:51.099Z,21.60
2022-10-05T13:44:05.363Z,21.80
2022-10-05T13:46:51.334Z,21.30
2022-10-05T13:49:41.642Z,21.30
2022-10-05T13:52:14.814Z,21.00
2022-10-05T13:54:57.183Z,20.90
2022-10-05T13:57:51.583Z,20.90
2022-10-05T14:00:24.135Z,20.90
2022-10-05T14:02:56.761Z,20.80
2022-10-05T14:05:32.429Z,20.70
2022-10-05T14:08:05.258Z,20.20
2022-10-05T14:10:41.840Z,20.30
2022-10-05T14:13:26.753Z,20.10
2022-10-05T14:16:13.338Z,19.90
2022-10-05T14:19:19.063Z,19.70
2022-10-05T14:21:53.665Z,19.60
2022-10-05T14:24:49.464Z,19.60
2022-10-05T14:27:26.671Z,19.50
2022-10-05T14:30:18.187Z,19.50
2022-10-05T14:33:05.566Z,19.40
2022-10-05T14:35:53.585Z,19.30
2022-10-05T14:38:29.888Z,19.20
2022-10-05T14:41:04.769Z,19.20
2022-10-05T14:43:33.175Z,19.20
2022-10-05T14:46:05.491Z,19.20
2022-10-05T14:48:45.863Z,19.10
2022-10-05T14:51:25.512Z,19.00
2022-10-05T14:54:01.226Z,18.90
2022-10-05T14:56:48.082Z,18.90
2022-10-05T14:59:27.739Z,18.90
2022-10-05T15:02:17.040Z,18.90
2022-10-05T15:04:59.873Z,18.90
2022-10-05T15:07:38.859Z,18.80
2022-10-05T15:10:27.042Z,18.80
2022-10-05T15:12:58.797Z,18.80
2022-10-05T15:16:03.857Z,18.70
2022-10-05T15:18:51.196Z,18.70
2022-10-05T15:22:00.163Z,18.60
2022-10-05T15:24:41.260Z,18.60
2022-10-05T15:27:26.210Z,18.60
2022-10-05T15:30:09.223Z,18.50
2022-10-05T15:32:55.415Z,18.50
2022-10-05T15:35:44.182Z,18.40
2022-10-05T15:38:21.186Z,18.40
2022-10-05T15:41:16.316Z,18.40
2022-10-05T15:44:19.428Z,18.20
2022-10-05T15:46:58.088Z,18.10
2022-10-05T15:49:47.531Z,18.00
2022-10-05T15:52:29.576Z,17.80
2022-10-05T15:55:15.852Z,17.70
2022-10-05T15:58:09.965Z,17.50
2022-10-05T16:00:45.092Z,17.20
2022-10-05T16:03:25.751Z,17.10
2022-10-05T16:06:42.278Z,16.90
2022-10-05T16:09:30.452Z,16.80
2022-10-05T16:12:09.826Z,16.70
2022-10-05T16:15:03.633Z,16.60
2022-10-05T16:17:33.814Z,16.50
2022-10-05T16:20:03.014Z,16.30
2022-10-05T16:22:46.653Z,16.20
2022-10-05T16:25:23.563Z,16.10
2022-10-05T16:28:08.676Z,16.00
2022-10-05T16:31:10.215Z,15.90
2022-10-05T16:33:56.284Z,15.90
2022-10-05T16:36:49.760Z,15.80
2022-10-05T16:39:38.227Z,15.80
2022-10-05T16:42:16.456Z,15.70
2022-10-05T16:45:06.736Z,15.60
2022-10-05T16:48:04.277Z,15.60
2022-10-05T16:50:42.995Z,15.50
2022-10-05T16:53:15.059Z,15.60
2022-10-05T16:55:48.281Z,15.70
2022-10-05T16:58:45.371Z,15.70
2022-10-05T17:01:41.889Z,15.80
2022-10-05T17:04:23.725Z,15.90
2022-10-05T17:07:03.280Z,16.00
2022-10-05T17:10:03.569Z,16.00
2022-10-05T17:12:42.317Z,16.00
2022-10-05T17:15:51.077Z,16.00
2022-10-05T17:18:27.388Z,16.00
2022-10-05T17:21:34.907Z,16.00
2022-10-05T17:24:12.017Z,16.00
2022-10-05T17:26:46.274Z,16.00
2022-10-05T17:29:24.838Z,16.10
2022-10-05T17:32:33.458Z,16.10
2022-10-05T17:35:01.491Z,16.00
2022-10-05T17:37:39.210Z,16.00
2022-10-05T17:40:33.358Z,16.00
2022-10-05T17:43:05.445Z,16.00
2022-10-05T17:45:33.238Z,15.90
2022-10-05T17:48:10.293Z,15.90
2022-10-05T17:51:00.507Z,15.90
2022-10-05T17:53:52.691Z,15.90
2022-10-05T17:56:22.724Z,15.90
2022-10-05T17:58:54.551Z,15.90
2022-10-05T18:01:40.742Z,15.90
2022-10-05T18:04:11.236Z,15.90
2022-10-05T18:06:44.760Z,15.90
2022-10-05T18:09:36.182Z,15.90
2022-10-05T18:12:27.145Z,15.90
2022-10-05T18:15:14.211Z,15.90
2022-10-05T18:17:58.169Z,15.90
2022-10-05T18:20:26.758Z,16.00
2022-10-05T18:23:03.188Z,16.00
2022-10-05T18:25:49.164Z,16.00
2022-10-05T18:28:22.118Z,16.10
2022-10-05T18:31:19.335Z,16.10
2022-10-05T18:34:15.116Z,16.10
2022-10-05T18:37:12.221Z,16.00
2022-10-05T18:39:55.123Z,16.10
2022-10-05T18:43:17.857Z,16.20
2022-10-05T18:46:09.749Z,16.10
2022-10-05T18:49:02.792Z,16.10
2022-10-05T18:51:51.838Z,16.10
2022-10-05T18:54:54.772Z,16.30
2022-10-05T18:57:33.664Z,16.30
2022-10-05T19:00:19.834Z,16.10
2022-10-05T19:02:59.614Z,15.90
2022-10-05T19:05:49.360Z,15.80
2022-10-05T19:09:04.149Z,15.80
2022-10-05T19:12:09.151Z,15.90
2022-10-05T19:14:49.250Z,16.10
2022-10-05T19:17:45.386Z,16.10
2022-10-05T19:20:41.502Z,16.10
2022-10-05T19:23:22.767Z,16.10
2022-10-05T19:25:59.647Z,16.00
2022-10-05T19:28:52.958Z,15.80
2022-10-05T19:31:53.085Z,15.80
2022-10-05T19:34:40.858Z,15.80
2022-10-05T19:37:18.452Z,15.90
2022-10-05T19:39:46.307Z,16.00
2022-10-05T19:42:39.157Z,16.00
2022-10-05T19:45:18.758Z,16.10
2022-10-05T19:48:11.020Z,16.10
2022-10-05T19:50:39.770Z,16.10
2022-10-05T19:53:17.164Z,16.10
2022-10-05T19:55:47.111Z,16.10
2022-10-05T19:58:26.815Z,16.10
2022-10-05T20:01:04.883Z,16.00
2022-10-05T20:03:35.247Z,16.10
2022-10-05T20:06:07.808Z,16.10
2022-10-05T20:08:46.642Z,16.10
2022-10-05T20:11:18.931Z,16.20
2022-10-05T20:13:52.100Z,16.30
2022-10-05T20:16:39.957Z,16.30
2022-10-05T20:19:34.406Z,16.40
2022-10-05T20:22:28.625Z,16.40
2022-10-05T20:25:00.264Z,16.50
2022-10-05T20:27:48.773Z,16.50
2022-10-05T20:30:21.648Z,16.40
2022-10-05T20:32:58.227Z,16.20
2022-10-05T20:35:29.338Z,16.10
2022-10-05T20:37:59.961Z,16.00
2022-10-05T20:40:29.550Z,16.00
2022-10-05T20:42:58.772Z,16.20
2022-10-05T20:45:26.217Z,16.50
2022-10-05T20:47:55.207Z,16.50
2022-10-05T20:50:23.740Z,16.60
2022-10-05T20:52:51.518Z,16.60
2022-10-05T20:55:20.664Z,16.60
2022-10-05T20:57:48.271Z,16.70
2022-10-05T21:00:15.641Z,16.70
2022-10-05T21:02:42.973Z,16.60
2022-10-05T21:05:10.389Z,16.60
2022-10-05T21:07:37.770Z,16.40
2022-10-05T21:10:05.587Z,16.50
2022-10-05T21:12:34.583Z,16.40
2022-10-05T21:15:04.586Z,16.40
2022-10-05T21:17:34.579Z,16.30
2022-10-05T21:20:02.131Z,16.20
2022-10-05T21:22:29.529Z,16.40
2022-10-05T21:24:56.845Z,16.50
2022-10-05T21:27:24.551Z,16.60
2022-10-05T21:29:52.122Z,16.70
2022-10-05T21:32:19.468Z,16.80
2022-10-05T21:34:46.849Z,16.90
2022-10-05T21:37:15.389Z,16.90
2022-10-05T21:39:43.086Z,16.90
2022-10-05T21:42:10.927Z,16.90
2022-10-05T21:44:38.232Z,17.00
2022-10-05T21:47:06.928Z,16.90
2022-10-05T21:49:35.885Z,16.90
2022-10-05T21:52:05.182Z,16.90
2022-10-05T21:54:33.742Z,17.00
2022-10-05T21:57:01.531Z,17.00
2022-10-05T21:59:32.506Z,16.90
2022-10-05T22:02:00.714Z,16.90
2022-10-05T22:04:28.131Z,16.90
2022-10-05T22:06:56.315Z,17.00
2022-10-05T22:09:23.668Z,17.00
2022-10-05T22:11:51.395Z,17.00
2022-10-05T22:14:18.749Z,17.00
2022-10-05T22:16:47.201Z,17.00
2022-10-05T22:19:19.173Z,17.00
2022-10-05T22:21:46.539Z,17.00
2022-10-05T22:24:13.917Z,17.10
2022-10-05T22:26:44.725Z,17.00
2022-10-05T22:29:14.097Z,17.00
2022-10-05T22:31:42.141Z,17.00
2022-10-05T22:34:10.077Z,17.00
2022-10-05T22:36:37.890Z,16.80
2022-10-05T22:39:05.222Z,16.60
2022-10-05T22:41:32.570Z,16.40
2022-10-05T22:44:00.403Z,16.10
2022-10-05T22:46:28.009Z,15.70
2022-10-05T22:48:55.491Z,15.40
2022-10-05T22:51:22.802Z,15.10
2022-10-05T22:53:50.161Z,14.90
2022-10-05T22:56:17.809Z,14.70
2022-10-05T22:58:46.868Z,14.60
2022-10-05T23:01:16.496Z,14.50
2022-10-05T23:03:45.004Z,14.50
2022-10-05T23:06:15.515Z,14.50
2022-10-05T23:08:44.486Z,14.50
2022-10-05T23:11:25.631Z,14.40
2022-10-05T23:13:58.613Z,14.40
2022-10-05T23:16:28.296Z,14.40
2022-10-05T23:18:56.190Z,14.30
2022-10-05T23:21:25.635Z,14.20
2022-10-05T23:23:53.178Z,14.20
2022-10-05T23:26:26.012Z,14.20
2022-10-05T23:28:53.993Z,14.20
2022-10-05T23:31:24.006Z,14.10
2022-10-05T23:33:53.190Z,14.10
2022-10-05T23:36:27.524Z,14.10
2022-10-05T23:38:54.895Z,14.10
2022-10-05T23:41:22.504Z,14.10
2022-10-05T23:43:49.842Z,14.10
2022-10-05T23:46:18.052Z,14.10
2022-10-05T23:48:45.795Z,14.10
2022-10-05T23:51:13.779Z,14.20
2022-10-05T23:53:41.171Z,14.10
2022-10-05T23:56:08.514Z,14.10
2022-10-05T23:58:36.445Z,14.10
